Wetterdaten: Woche 22.12.14 - 28.12.14 (KW52)
Datum Zeit Temp. A. Feuchte A. Luftdruck Regen Wind Richtung Sonnenschein ET UV Solar Taupunkt Windchill Windben
22.12.2014 00:00 3,6 C 92 % 1025,6 hPa 0,2 l/m 10,9 km/h (2 Bft) SW 0,00 h 0,000 mm 0,0 UV-I 0 W/m 2,4 C -0,0 C 16,9 km/h (3 Bft)
22.12.2014 01:00 3,7 C 92 % 1024,9 hPa 0,2 l/m 10,8 km/h (2 Bft) W-SW 0,00 h 0,000 mm 0,0 UV-I 0 W/m 2,5 C 0,2 C 18,1 km/h (3 Bft)
22.12.2014 02:00 3,8 C 92 % 1024,5 hPa 0,0 l/m 12,3 km/h (2 Bft) W-SW 0,00 h 0,000 mm 0,0 UV-I 0 W/m 2,6 C -0,5 C 19,7 km/h (3 Bft)
22.12.2014 03:00 4,1 C 90 % 1023,9 hPa 0,0 l/m 17,8 km/h (3 Bft) W-SW 0,00 h 0,000 mm 0,0 UV-I 0 W/m 2,6 C -3,2 C 27,7 km/h (5 Bft)
22.12.2014 04:00 4,3 C 88 % 1023,6 hPa 0,0 l/m 16,3 km/h (3 Bft) W-SW 0,00 h 0,000 mm 0,0 UV-I 0 W/m 2,6 C -2,2 C 25,4 km/h (4 Bft)
22.12.2014 05:00 4,3 C 87 % 1022,9 hPa 0,0 l/m 18,2 km/h (3 Bft) W-SW 0,00 h 0,025 mm 0,0 UV-I 0 W/m 2,4 C -3,1 C 29,4 km/h (5 Bft)
22.12.2014 06:00 4,4 C 87 % 1022,6 hPa 0,0 l/m 18,2 km/h (3 Bft) W-SW 0,00 h 0,025 mm 0,0 UV-I 0 W/m 2,4 C -2,9 C 28,7 km/h (5 Bft)
22.12.2014 07:00 4,4 C 88 % 1022,5 hPa 0,0 l/m 17,4 km/h (3 Bft) W-SW 0,00 h 0,025 mm 0,0 UV-I 0 W/m 2,6 C -2,5 C 27,6 km/h (5 Bft)
22.12.2014 08:00 4,5 C 90 % 1022,6 hPa 0,0 l/m 17,9 km/h (3 Bft) W-SW 0,00 h 0,025 mm 0,0 UV-I 0 W/m 2,9 C -2,7 C 28,7 km/h (5 Bft)
22.12.2014 09:00 4,7 C 89 % 1022,6 hPa 0,0 l/m 19,3 km/h (3 Bft) W-SW 0,00 h 0,025 mm 0,0 UV-I 11 W/m 3,1 C -3,0 C 30,2 km/h (5 Bft)
22.12.2014 10:00 4,8 C 89 % 1022,8 hPa 0,0 l/m 18,2 km/h (3 Bft) W-SW 0,00 h 0,025 mm 0,0 UV-I 17 W/m 3,2 C -2,4 C 27,9 km/h (5 Bft)
22.12.2014 11:00 5,0 C 90 % 1022,4 hPa 0,0 l/m 17,6 km/h (3 Bft) W-SW 0,45 h 0,025 mm 0,5 UV-I 44 W/m 3,5 C -2,0 C 27,9 km/h (5 Bft)
22.12.2014 12:00 5,1 C 90 % 1021,8 hPa 0,0 l/m 21,3 km/h (4 Bft) W-SW 0,13 h 0,025 mm 0,0 UV-I 44 W/m 3,7 C -3,3 C 33,5 km/h (5 Bft)
22.12.2014 13:00 5,2 C 91 % 1021,1 hPa 0,0 l/m 21,1 km/h (4 Bft) W-SW 0,00 h 0,025 mm 0,0 UV-I 20 W/m 3,8 C -3,3 C 32,7 km/h (5 Bft)
22.12.2014 14:00 5,2 C 91 % 1020,5 hPa 0,0 l/m 20,7 km/h (4 Bft) W-SW 0,00 h 0,025 mm 0,0 UV-I 18 W/m 3,9 C -3,0 C 32,1 km/h (5 Bft)
22.12.2014 15:00 5,6 C 90 % 1020,6 hPa 0,0 l/m 20,1 km/h (4 Bft) W-SW 0,00 h 0,025 mm 0,0 UV-I 9 W/m 4,0 C -2,3 C 30,2 km/h (5 Bft)
22.12.2014 16:00 5,8 C 88 % 1020,5 hPa 0,0 l/m 22,9 km/h (4 Bft) W-SW 0,00 h 0,025 mm 0,0 UV-I 0 W/m 4,0 C -3,1 C 34,4 km/h (5 Bft)
22.12.2014 17:00 5,5 C 90 % 1021,3 hPa 0,0 l/m 17,5 km/h (3 Bft) W 0,00 h 0,025 mm 0,0 UV-I 0 W/m 4,0 C -1,3 C 27,3 km/h (5 Bft)
22.12.2014 18:00 5,2 C 92 % 1021,5 hPa 0,0 l/m 17,0 km/h (3 Bft) W 0,00 h 0,025 mm 0,0 UV-I 0 W/m 3,9 C -1,5 C 27,0 km/h (5 Bft)
22.12.2014 19:00 5,1 C 93 % 1021,9 hPa 0,0 l/m 16,2 km/h (3 Bft) W 0,00 h 0,025 mm 0,0 UV-I 0 W/m 4,0 C -1,3 C 24,5 km/h (4 Bft)
22.12.2014 20:00 5,3 C 93 % 1021,8 hPa 0,0 l/m 16,1 km/h (3 Bft) W 0,00 h 0,000 mm 0,0 UV-I 0 W/m 4,2 C -1,0 C 24,1 km/h (4 Bft)
22.12.2014 21:00 5,4 C 92 % 1021,5 hPa 0,0 l/m 18,0 km/h (3 Bft) W 0,00 h 0,000 mm 0,0 UV-I 0 W/m 4,3 C -1,6 C 27,8 km/h (5 Bft)
22.12.2014 22:00 5,6 C 93 % 1021,3 hPa 0,0 l/m 17,8 km/h (3 Bft) W-SW 0,00 h 0,025 mm 0,0 UV-I 0 W/m 4,5 C -1,4 C 27,5 km/h (5 Bft)
22.12.2014 23:00 5,7 C 94 % 1021,2 hPa 0,0 l/m 15,1 km/h (3 Bft) W-SW 0,00 h 0,000 mm 0,0 UV-I 0 W/m 4,8 C 0,0 C 23,6 km/h (4 Bft)
23.12.2014 00:00 6,0 C 94 % 1021,3 hPa 0,0 l/m 16,2 km/h (3 Bft) W-SW 0,00 h 0,000 mm 0,0 UV-I 0 W/m 5,1 C -0,2 C 24,8 km/h (4 Bft)
23.12.2014 01:00 6,2 C 93 % 1021,3 hPa 0,0 l/m 15,2 km/h (3 Bft) W-SW 0,00 h 0,000 mm 0,0 UV-I 0 W/m 5,2 C 0,6 C 23,6 km/h (4 Bft)
23.12.2014 02:00 6,6 C 91 % 1021,2 hPa 0,0 l/m 17,2 km/h (3 Bft) W 0,00 h 0,000 mm 0,0 UV-I 0 W/m 5,3 C 0,2 C 26,0 km/h (4 Bft)
23.12.2014 03:00 6,7 C 90 % 1020,9 hPa 0,0 l/m 18,9 km/h (3 Bft) W 0,00 h 0,025 mm 0,0 UV-I 0 W/m 5,3 C -0,4 C 28,0 km/h (5 Bft)
23.12.2014 04:00 6,9 C 89 % 1020,3 hPa 0,0 l/m 21,4 km/h (4 Bft) W-SW 0,00 h 0,000 mm 0,0 UV-I 0 W/m 5,2 C -1,1 C 33,8 km/h (5 Bft)
23.12.2014 05:00 7,0 C 89 % 1020,4 hPa 0,0 l/m 21,3 km/h (4 Bft) W-SW 0,00 h 0,025 mm 0,0 UV-I 0 W/m 5,3 C -0,9 C 33,4 km/h (5 Bft)
23.12.2014 06:00 7,1 C 88 % 1020,2 hPa 0,0 l/m 24,3 km/h (4 Bft) W-SW 0,00 h 0,025 mm 0,0 UV-I 0 W/m 5,3 C -1,8 C 37,4 km/h (5 Bft)
23.12.2014 07:00 6,8 C 90 % 1020,6 hPa 0,0 l/m 21,4 km/h (4 Bft) W-SW 0,00 h 0,025 mm 0,0 UV-I 0 W/m 5,3 C -1,2 C 31,7 km/h (5 Bft)
23.12.2014 08:00 6,5 C 92 % 1021,4 hPa 0,0 l/m 15,7 km/h (3 Bft) W-SW 0,00 h 0,025 mm 0,0 UV-I 5 W/m 5,3 C 0,7 C 24,3 km/h (4 Bft)
23.12.2014 09:00 6,6 C 90 % 1021,6 hPa 0,0 l/m 14,2 km/h (3 Bft) W-SW 0,00 h 0,025 mm 0,0 UV-I 8 W/m 5,1 C 1,5 C 22,0 km/h (4 Bft)
23.12.2014 10:00 7,0 C 86 % 1021,7 hPa 0,0 l/m 15,3 km/h (3 Bft) W-SW 0,00 h 0,025 mm 0,0 UV-I 19 W/m 4,8 C 1,5 C 23,3 km/h (4 Bft)
23.12.2014 11:00 7,3 C 84 % 1021,4 hPa 0,0 l/m 16,5 km/h (3 Bft) W 0,22 h 0,025 mm 0,0 UV-I 41 W/m 4,7 C 1,3 C 26,0 km/h (4 Bft)
23.12.2014 12:00 7,2 C 84 % 1021,1 hPa 0,0 l/m 17,0 km/h (3 Bft) W-SW 0,63 h 0,051 mm 0,0 UV-I 54 W/m 4,7 C 1,1 C 26,9 km/h (4 Bft)
23.12.2014 13:00 7,1 C 84 % 1020,6 hPa 0,0 l/m 21,1 km/h (4 Bft) W 1,00 h 0,051 mm 0,0 UV-I 70 W/m 4,6 C -0,7 C 32,3 km/h (5 Bft)
23.12.2014 14:00 7,0 C 85 % 1020,5 hPa 0,0 l/m 18,6 km/h (3 Bft) W 0,30 h 0,051 mm 0,0 UV-I 49 W/m 4,7 C 0,0 C 29,7 km/h (5 Bft)
23.12.2014 15:00 6,9 C 86 % 1020,7 hPa 0,0 l/m 13,6 km/h (3 Bft) W 0,00 h 0,051 mm 0,0 UV-I 24 W/m 4,7 C 2,3 C 21,4 km/h (4 Bft)
23.12.2014 16:00 6,9 C 87 % 1020,6 hPa 0,0 l/m 9,9 km/h (2 Bft) W 0,00 h 0,025 mm 0,0 UV-I 5 W/m 4,9 C 4,3 C 15,5 km/h (3 Bft)
23.12.2014 17:00 7,1 C 87 % 1020,6 hPa 0,0 l/m 11,0 km/h (2 Bft) W 0,00 h 0,025 mm 0,0 UV-I 0 W/m 5,0 C 3,9 C 16,6 km/h (3 Bft)
23.12.2014 18:00 7,1 C 87 % 1020,7 hPa 0,0 l/m 9,1 km/h (2 Bft) W 0,00 h 0,025 mm 0,0 UV-I 0 W/m 5,0 C 5,1 C 14,3 km/h (3 Bft)
23.12.2014 19:00 7,1 C 87 % 1020,7 hPa 0,0 l/m 7,8 km/h (2 Bft) W-SW 0,00 h 0,025 mm 0,0 UV-I 0 W/m 5,1 C 5,8 C 12,7 km/h (3 Bft)
23.12.2014 20:00 6,9 C 88 % 1020,6 hPa 0,0 l/m 7,4 km/h (2 Bft) W-SW 0,00 h 0,025 mm 0,0 UV-I 0 W/m 5,1 C 5,7 C 11,5 km/h (2 Bft)
23.12.2014 21:00 6,8 C 87 % 1020,5 hPa 0,0 l/m 6,6 km/h (2 Bft) W-SW 0,00 h 0,025 mm 0,0 UV-I 0 W/m 4,9 C 5,8 C 11,1 km/h (2 Bft)
23.12.2014 22:00 6,6 C 88 % 1020,5 hPa 0,0 l/m 4,8 km/h (1 Bft) W-SW 0,00 h 0,025 mm 0,0 UV-I 0 W/m 4,8 C 6,0 C 8,5 km/h (2 Bft)
23.12.2014 23:00 6,4 C 88 % 1020,5 hPa 0,0 l/m 6,5 km/h (2 Bft) SW 0,00 h 0,000 mm 0,0 UV-I 0 W/m 4,6 C 5,7 C 10,3 km/h (2 Bft)
24.12.2014 00:00 5,6 C 89 % 1020,3 hPa 0,0 l/m 6,9 km/h (2 Bft) S-SW 0,00 h 0,000 mm 0,0 UV-I 0 W/m 3,9 C 4,6 C 10,8 km/h (2 Bft)
24.12.2014 01:00 4,4 C 90 % 1019,9 hPa 0,0 l/m 7,8 km/h (2 Bft) S-SW 0,00 h 0,000 mm 0,0 UV-I 0 W/m 2,9 C 3,0 C 12,9 km/h (3 Bft)
24.12.2014 02:00 3,5 C 90 % 1019,7 hPa 0,0 l/m 6,7 km/h (2 Bft) S-SW 0,00 h 0,000 mm 0,0 UV-I 0 W/m 2,1 C 2,6 C 11,5 km/h (2 Bft)
24.12.2014 03:00 2,8 C 92 % 1019,5 hPa 0,0 l/m 4,3 km/h (1 Bft) S-SW 0,00 h 0,000 mm 0,0 UV-I 0 W/m 1,6 C 2,6 C 8,3 km/h (2 Bft)
24.12.2014 04:00 2,0 C 90 % 1019,1 hPa 0,0 l/m 4,7 km/h (1 Bft) S-SW 0,00 h 0,000 mm 0,0 UV-I 0 W/m 0,6 C 1,6 C 8,3 km/h (2 Bft)
24.12.2014 05:00 1,6 C 90 % 1018,8 hPa 0,0 l/m 6,2 km/h (2 Bft) S 0,00 h 0,000 mm 0,0 UV-I 0 W/m 0,1 C 0,9 C 10,6 km/h (2 Bft)
24.12.2014 06:00 1,7 C 88 % 1019,1 hPa 0,0 l/m 10,0 km/h (2 Bft) SW 0,00 h 0,000 mm 0,0 UV-I 0 W/m -0,0 C -1,3 C 16,5 km/h (3 Bft)
24.12.2014 07:00 2,3 C 87 % 1019,4 hPa 0,0 l/m 15,3 km/h (3 Bft) W-SW 0,00 h 0,000 mm 0,0 UV-I 0 W/m 0,3 C -4,2 C 23,3 km/h (4 Bft)
24.12.2014 08:00 2,1 C 87 % 1019,8 hPa 0,0 l/m 17,9 km/h (3 Bft) W-SW 0,00 h 0,025 mm 0,0 UV-I 6 W/m 0,3 C -5,7 C 27,1 km/h (5 Bft)
24.12.2014 09:00 2,2 C 88 % 1020,3 hPa 0,0 l/m 12,8 km/h (3 Bft) W-SW 0,00 h 0,025 mm 0,0 UV-I 16 W/m 0,5 C -2,7 C 19,4 km/h (3 Bft)
24.12.2014 10:00 2,8 C 90 % 1020,2 hPa 0,0 l/m 7,6 km/h (2 Bft) SW 0,00 h 0,025 mm 0,0 UV-I 25 W/m 1,3 C 1,4 C 12,1 km/h (2 Bft)
24.12.2014 11:00 3,8 C 89 % 1019,7 hPa 0,0 l/m 6,1 km/h (2 Bft) SW 0,02 h 0,025 mm 0,0 UV-I 37 W/m 2,1 C 3,1 C 10,8 km/h (2 Bft)
24.12.2014 12:00 4,7 C 86 % 1019,2 hPa 0,0 l/m 8,5 km/h (2 Bft) W-SW 0,05 h 0,025 mm 0,5 UV-I 29 W/m 2,6 C 2,6 C 15,0 km/h (3 Bft)
24.12.2014 13:00 5,2 C 84 % 1018,6 hPa 0,0 l/m 9,1 km/h (2 Bft) SW 0,50 h 0,025 mm 0,0 UV-I 52 W/m 2,8 C 2,9 C 15,9 km/h (3 Bft)
24.12.2014 14:00 5,6 C 83 % 1018,2 hPa 0,0 l/m 8,9 km/h (2 Bft) SW 0,78 h 0,028 mm 0,0 UV-I 57 W/m 3,0 C 3,4 C 15,2 km/h (3 Bft)
24.12.2014 15:00 5,9 C 83 % 1017,9 hPa 0,0 l/m 16,5 km/h (3 Bft) W-SW 0,18 h 0,025 mm 0,0 UV-I 34 W/m 3,3 C -0,3 C 26,8 km/h (4 Bft)
24.12.2014 16:00 5,6 C 89 % 1017,7 hPa 0,0 l/m 18,7 km/h (3 Bft) SW 0,00 h 0,051 mm 0,0 UV-I 6 W/m 4,0 C -1,8 C 28,6 km/h (5 Bft)
24.12.2014 17:00 5,9 C 88 % 1017,6 hPa 0,0 l/m 19,2 km/h (3 Bft) W-SW 0,00 h 0,025 mm 0,0 UV-I 0 W/m 4,1 C -1,5 C 30,7 km/h (5 Bft)
24.12.2014 18:00 6,1 C 90 % 1018,0 hPa 0,2 l/m 19,1 km/h (3 Bft) W-SW 0,00 h 0,025 mm 0,0 UV-I 0 W/m 4,6 C -1,2 C 29,3 km/h (5 Bft)
24.12.2014 19:00 5,6 C 95 % 1018,3 hPa 1,6 l/m 11,1 km/h (2 Bft) W-SW 0,00 h 0,025 mm 0,0 UV-I 0 W/m 4,8 C 2,1 C 17,6 km/h (3 Bft)
24.12.2014 20:00 5,6 C 95 % 1018,6 hPa 0,6 l/m 13,2 km/h (3 Bft) W-SW 0,00 h 0,000 mm 0,0 UV-I 0 W/m 4,9 C 0,9 C 20,3 km/h (4 Bft)
24.12.2014 21:00 5,7 C 95 % 1018,6 hPa 0,8 l/m 13,2 km/h (3 Bft) W-SW 0,00 h 0,001 mm 0,0 UV-I 0 W/m 4,9 C 1,1 C 20,3 km/h (4 Bft)
24.12.2014 22:00 5,7 C 95 % 1018,4 hPa 0,4 l/m 11,6 km/h (2 Bft) W-SW 0,00 h 0,000 mm 0,0 UV-I 0 W/m 5,0 C 1,9 C 18,4 km/h (3 Bft)
24.12.2014 23:00 5,8 C 95 % 1018,4 hPa 0,0 l/m 11,4 km/h (2 Bft) W-SW 0,00 h 0,000 mm 0,0 UV-I 0 W/m 5,0 C 2,2 C 17,4 km/h (3 Bft)
25.12.2014 00:00 5,8 C 96 % 1018,2 hPa 0,4 l/m 9,6 km/h (2 Bft) W-SW 0,00 h 0,000 mm 0,0 UV-I 0 W/m 5,2 C 3,3 C 15,4 km/h (3 Bft)
25.12.2014 01:00 6,0 C 96 % 1018,0 hPa 0,0 l/m 12,6 km/h (3 Bft) W-SW 0,00 h 0,000 mm 0,0 UV-I 0 W/m 5,3 C 1,7 C 19,3 km/h (3 Bft)
25.12.2014 02:00 6,2 C 95 % 1018,1 hPa 0,4 l/m 11,3 km/h (2 Bft) W-SW 0,00 h 0,000 mm 0,0 UV-I 0 W/m 5,4 C 2,7 C 17,2 km/h (3 Bft)
25.12.2014 03:00 5,6 C 95 % 1018,4 hPa 1,2 l/m 12,6 km/h (3 Bft) NW 0,00 h 0,000 mm 0,0 UV-I 0 W/m 4,9 C 1,4 C 19,6 km/h (3 Bft)
25.12.2014 04:00 4,6 C 94 % 1019,2 hPa 0,0 l/m 8,5 km/h (2 Bft) NW 0,00 h 0,000 mm 0,0 UV-I 0 W/m 3,7 C 2,6 C 12,9 km/h (3 Bft)
25.12.2014 05:00 4,0 C 93 % 1019,6 hPa 0,0 l/m 6,4 km/h (2 Bft) NW 0,00 h 0,000 mm 0,0 UV-I 0 W/m 3,0 C 3,4 C 10,0 km/h (2 Bft)
25.12.2014 06:00 3,0 C 88 % 1020,5 hPa 0,0 l/m 6,7 km/h (2 Bft) W 0,00 h 0,000 mm 0,0 UV-I 0 W/m 1,3 C 2,3 C 10,4 km/h (2 Bft)
25.12.2014 07:00 2,0 C 89 % 1020,7 hPa 0,0 l/m 5,8 km/h (2 Bft) W 0,00 h 0,000 mm 0,0 UV-I 0 W/m 0,4 C 1,6 C 9,0 km/h (2 Bft)
25.12.2014 08:00 1,7 C 89 % 1021,4 hPa 0,0 l/m 3,0 km/h (1 Bft) W-SW 0,00 h 0,000 mm 0,0 UV-I 8 W/m 0,2 C 1,5 C 5,6 km/h (2 Bft)
25.12.2014 09:00 1,9 C 91 % 1022,1 hPa 0,0 l/m 7,4 km/h (2 Bft) W 0,00 h 0,000 mm 0,0 UV-I 21 W/m 0,5 C 0,4 C 11,8 km/h (2 Bft)
25.12.2014 10:00 2,3 C 87 % 1022,7 hPa 0,0 l/m 9,8 km/h (2 Bft) W 0,48 h 0,025 mm 0,0 UV-I 49 W/m 0,4 C -0,6 C 15,1 km/h (3 Bft)
25.12.2014 11:00 2,6 C 84 % 1022,4 hPa 0,0 l/m 11,4 km/h (2 Bft) W 1,00 h 0,025 mm 0,6 UV-I 100 W/m 0,2 C -1,4 C 17,9 km/h (3 Bft)
25.12.2014 12:00 3,0 C 82 % 1022,0 hPa 0,0 l/m 14,6 km/h (3 Bft) W 1,00 h 0,051 mm 0,7 UV-I 129 W/m 0,2 C -3,0 C 22,3 km/h (4 Bft)
25.12.2014 13:00 2,9 C 82 % 1021,8 hPa 0,2 l/m 13,6 km/h (3 Bft) W 0,20 h 0,076 mm 0,0 UV-I 44 W/m 0,2 C -2,5 C 21,0 km/h (4 Bft)
25.12.2014 14:00 2,9 C 83 % 1021,9 hPa 0,0 l/m 11,6 km/h (2 Bft) W-NW 0,07 h 0,025 mm 0,0 UV-I 35 W/m 0,2 C -1,2 C 18,1 km/h (3 Bft)
25.12.2014 15:00 2,7 C 83 % 1022,0 hPa 0,0 l/m 10,5 km/h (2 Bft) W-SW 0,00 h 0,025 mm 0,0 UV-I 22 W/m 0,2 C -0,6 C 16,6 km/h (3 Bft)
25.12.2014 16:00 2,5 C 85 % 1022,1 hPa 0,0 l/m 10,5 km/h (2 Bft) W-SW 0,00 h 0,025 mm 0,0 UV-I 0 W/m 0,3 C -0,8 C 15,9 km/h (3 Bft)
25.12.2014 17:00 2,5 C 86 % 1022,3 hPa 0,0 l/m 10,3 km/h (2 Bft) W-SW 0,00 h 0,025 mm 0,0 UV-I 0 W/m 0,4 C -0,7 C 16,2 km/h (3 Bft)
25.12.2014 18:00 2,6 C 87 % 1022,5 hPa 0,0 l/m 8,6 km/h (2 Bft) SW 0,00 h 0,025 mm 0,0 UV-I 0 W/m 0,6 C 0,5 C 13,3 km/h (3 Bft)
25.12.2014 19:00 2,5 C 87 % 1022,7 hPa 0,0 l/m 7,6 km/h (2 Bft) W-SW 0,00 h 0,025 mm 0,0 UV-I 0 W/m 0,5 C 1,1 C 12,4 km/h (2 Bft)
25.12.2014 20:00 2,2 C 89 % 1022,7 hPa 0,0 l/m 9,6 km/h (2 Bft) W-SW 0,00 h 0,000 mm 0,0 UV-I 0 W/m 0,6 C -0,6 C 15,5 km/h (3 Bft)
25.12.2014 21:00 1,6 C 93 % 1023,0 hPa 0,0 l/m 6,0 km/h (2 Bft) W-NW 0,00 h 0,000 mm 0,0 UV-I 0 W/m 0,6 C 0,9 C 10,2 km/h (2 Bft)
25.12.2014 22:00 1,3 C 94 % 1023,3 hPa 0,0 l/m 7,0 km/h (2 Bft) W 0,00 h 0,000 mm 0,0 UV-I 0 W/m 0,5 C -0,1 C 10,7 km/h (2 Bft)
25.12.2014 23:00 0,9 C 92 % 1023,7 hPa 0,0 l/m 5,1 km/h (1 Bft) W-SW 0,00 h 0,000 mm 0,0 UV-I 0 W/m -0,2 C 0,7 C 8,8 km/h (2 Bft)
26.12.2014 00:00 0,8 C 90 % 1024,0 hPa 0,0 l/m 5,7 km/h (2 Bft) W-SW 0,00 h 0,000 mm 0,0 UV-I 0 W/m -0,7 C 0,2 C 9,4 km/h (2 Bft)
26.12.2014 01:00 0,7 C 92 % 1024,3 hPa 0,0 l/m 5,1 km/h (1 Bft) W-SW 0,00 h 0,000 mm 0,0 UV-I 0 W/m -0,5 C 0,5 C 8,3 km/h (2 Bft)
26.12.2014 02:00 0,8 C 90 % 1024,9 hPa 0,0 l/m 9,6 km/h (2 Bft) W-NW 0,00 h 0,000 mm 0,0 UV-I 0 W/m -0,6 C -2,1 C 14,9 km/h (3 Bft)
26.12.2014 03:00 1,0 C 88 % 1025,3 hPa 0,0 l/m 9,9 km/h (2 Bft) W-NW 0,00 h 0,000 mm 0,0 UV-I 0 W/m -0,8 C -2,1 C 14,7 km/h (3 Bft)
26.12.2014 04:00 0,7 C 89 % 1025,6 hPa 0,0 l/m 7,8 km/h (2 Bft) NW 0,00 h 0,000 mm 0,0 UV-I 0 W/m -0,9 C -0,9 C 11,6 km/h (2 Bft)
26.12.2014 05:00 0,6 C 88 % 1025,9 hPa 0,0 l/m 5,1 km/h (1 Bft) N-NW 0,00 h 0,000 mm 0,0 UV-I 0 W/m -1,1 C 0,1 C 8,3 km/h (2 Bft)
26.12.2014 06:00 0,4 C 89 % 1026,1 hPa 0,0 l/m 1,4 km/h (1 Bft) N 0,00 h 0,000 mm 0,0 UV-I 0 W/m -1,1 C 0,4 C 2,7 km/h (1 Bft)
26.12.2014 07:00 0,2 C 91 % 1026,3 hPa 0,0 l/m 0,4 km/h (0 Bft) N 0,00 h 0,000 mm 0,0 UV-I 0 W/m -1,1 C 0,2 C 1,4 km/h (1 Bft)
26.12.2014 08:00 0,2 C 92 % 1026,6 hPa 0,0 l/m 2,5 km/h (1 Bft) N-NW 0,02 h 0,000 mm 0,0 UV-I 30 W/m -0,9 C 0,2 C 4,6 km/h (1 Bft)
26.12.2014 09:00 0,2 C 93 % 1027,0 hPa 0,0 l/m 3,7 km/h (1 Bft) W 0,10 h 0,000 mm 0,0 UV-I 25 W/m -0,8 C -0,1 C 6,7 km/h (2 Bft)
26.12.2014 10:00 -0,1 C 94 % 1027,4 hPa 0,0 l/m 0,7 km/h (0 Bft) N 0,10 h 0,000 mm 0,0 UV-I 39 W/m -1,0 C -0,1 C 1,8 km/h (1 Bft)
26.12.2014 11:00 1,0 C 89 % 1027,1 hPa 0,0 l/m 2,1 km/h (1 Bft) N 0,85 h 0,025 mm 0,7 UV-I 190 W/m -0,7 C 0,9 C 4,0 km/h (1 Bft)
26.12.2014 12:00 0,4 C 89 % 1026,8 hPa 0,0 l/m 3,1 km/h (1 Bft) W-NW 0,62 h 0,076 mm 0,0 UV-I 56 W/m -1,2 C 0,4 C 5,3 km/h (1 Bft)
26.12.2014 13:00 0,6 C 87 % 1026,6 hPa 0,2 l/m 2,1 km/h (1 Bft) N-NW 0,52 h 0,025 mm 0,5 UV-I 56 W/m -1,2 C 0,6 C 4,4 km/h (1 Bft)
26.12.2014 14:00 0,3 C 88 % 1026,5 hPa 0,0 l/m 1,0 km/h (0 Bft) W 0,00 h 0,025 mm 0,0 UV-I 35 W/m -1,5 C 0,3 C 2,4 km/h (1 Bft)
26.12.2014 15:00 0,1 C 89 % 1026,3 hPa 0,2 l/m 1,3 km/h (1 Bft) N 0,00 h 0,025 mm 0,0 UV-I 20 W/m -1,5 C -0,2 C 2,8 km/h (1 Bft)
26.12.2014 16:00 -0,8 C 89 % 1026,6 hPa 0,0 l/m 5,8 km/h (2 Bft) N-NW 0,00 h 0,000 mm 0,0 UV-I 0 W/m -2,4 C -2,2 C 9,2 km/h (2 Bft)
26.12.2014 17:00 -1,3 C 89 % 1026,5 hPa 0,0 l/m 0,3 km/h (0 Bft) N 0,00 h 0,000 mm 0,0 UV-I 0 W/m -2,9 C -1,3 C 1,1 km/h (1 Bft)
26.12.2014 18:00 -2,1 C 90 % 1026,5 hPa 0,0 l/m 0,0 km/h (0 Bft) N 0,00 h 0,000 mm 0,0 UV-I 0 W/m -3,5 C -2,1 C 0,2 km/h (0 Bft)
26.12.2014 19:00 -3,1 C 91 % 1026,3 hPa 0,0 l/m 0,1 km/h (0 Bft) N 0,00 h 0,000 mm 0,0 UV-I 0 W/m -4,4 C -3,1 C 0,5 km/h (0 Bft)
26.12.2014 20:00 -3,9 C 93 % 1026,1 hPa 0,0 l/m 0,0 km/h (0 Bft) N 0,00 h 0,000 mm 0,0 UV-I 0 W/m -4,9 C -3,9 C 0,1 km/h (0 Bft)
26.12.2014 21:00 -4,5 C 93 % 1025,6 hPa 0,0 l/m 0,8 km/h (0 Bft) N-NW 0,00 h 0,000 mm 0,0 UV-I 0 W/m -5,4 C -4,5 C 1,9 km/h (1 Bft)
26.12.2014 22:00 -5,0 C 94 % 1025,2 hPa 0,0 l/m 0,7 km/h (0 Bft) N-NW 0,00 h 0,000 mm 0,0 UV-I 0 W/m -5,8 C -5,0 C 1,9 km/h (1 Bft)
26.12.2014 23:00 -5,4 C 94 % 1024,6 hPa 0,0 l/m 2,1 km/h (1 Bft) N-NW 0,00 h 0,000 mm 0,0 UV-I 0 W/m -6,3 C -5,4 C 3,4 km/h (1 Bft)
27.12.2014 00:00 -6,0 C 92 % 1023,6 hPa 0,0 l/m 0,3 km/h (0 Bft) N 0,00 h 0,000 mm 0,0 UV-I 0 W/m -7,0 C -6,0 C 1,0 km/h (0 Bft)
27.12.2014 01:00 -6,2 C 94 % 1022,7 hPa 0,0 l/m 0,3 km/h (0 Bft) N-NW 0,00 h 0,000 mm 0,0 UV-I 0 W/m -7,1 C -6,2 C 1,3 km/h (1 Bft)
27.12.2014 02:00 -4,8 C 96 % 1021,8 hPa 0,0 l/m 1,9 km/h (1 Bft) N-NW 0,00 h 0,000 mm 0,0 UV-I 0 W/m -5,3 C -4,8 C 3,9 km/h (1 Bft)
27.12.2014 03:00 -4,4 C 96 % 1020,7 hPa 0,0 l/m 0,8 km/h (0 Bft) N-NW 0,00 h 0,000 mm 0,0 UV-I 0 W/m -4,9 C -4,4 C 2,2 km/h (1 Bft)
27.12.2014 04:00 -4,5 C 95 % 1019,0 hPa 0,0 l/m 1,3 km/h (1 Bft) N-NW 0,00 h 0,000 mm 0,0 UV-I 0 W/m -5,1 C -4,5 C 2,9 km/h (1 Bft)
27.12.2014 05:00 -5,0 C 95 % 1017,3 hPa 0,0 l/m 0,7 km/h (0 Bft) N-NW 0,00 h 0,000 mm 0,0 UV-I 0 W/m -5,7 C -5,0 C 1,9 km/h (1 Bft)
27.12.2014 06:00 -5,8 C 94 % 1015,3 hPa 0,0 l/m 0,3 km/h (0 Bft) N 0,00 h 0,000 mm 0,0 UV-I 0 W/m -6,6 C -5,8 C 0,9 km/h (0 Bft)
27.12.2014 07:00 -6,1 C 94 % 1013,7 hPa 0,0 l/m 1,2 km/h (1 Bft) N-NW 0,00 h 0,000 mm 0,0 UV-I 0 W/m -6,9 C -6,1 C 2,8 km/h (1 Bft)
27.12.2014 08:00 -5,7 C 92 % 1012,2 hPa 0,0 l/m 3,3 km/h (1 Bft) O 0,00 h 0,000 mm 0,0 UV-I 13 W/m -6,7 C -5,7 C 6,9 km/h (2 Bft)
27.12.2014 09:00 -5,1 C 88 % 1010,9 hPa 0,0 l/m 3,1 km/h (1 Bft) O-SO 0,02 h 0,000 mm 0,0 UV-I 38 W/m -6,7 C -5,3 C 6,9 km/h (2 Bft)
27.12.2014 10:00 -4,6 C 83 % 1009,3 hPa 0,0 l/m 5,8 km/h (2 Bft) O 0,93 h 0,025 mm 0,0 UV-I 59 W/m -7,1 C -5,6 C 11,1 km/h (2 Bft)
27.12.2014 11:00 -4,0 C 78 % 1008,0 hPa 0,0 l/m 7,0 km/h (2 Bft) O 1,00 h 0,025 mm 0,0 UV-I 68 W/m -7,2 C -5,7 C 13,0 km/h (3 Bft)
27.12.2014 12:00 -3,4 C 77 % 1006,4 hPa 0,0 l/m 6,9 km/h (2 Bft) O 1,00 h 0,025 mm 0,0 UV-I 75 W/m -6,9 C -5,1 C 13,0 km/h (3 Bft)
27.12.2014 13:00 -3,1 C 77 % 1005,0 hPa 0,0 l/m 3,6 km/h (1 Bft) O-NO 1,00 h 0,025 mm 0,0 UV-I 75 W/m -6,6 C -3,4 C 8,4 km/h (2 Bft)
27.12.2014 14:00 -3,2 C 76 % 1004,1 hPa 0,0 l/m 8,2 km/h (2 Bft) SO 0,67 h 0,027 mm 0,0 UV-I 53 W/m -6,7 C -5,6 C 16,3 km/h (3 Bft)
27.12.2014 15:00 -3,4 C 78 % 1003,7 hPa 0,0 l/m 9,4 km/h (2 Bft) SO 0,00 h 0,025 mm 0,0 UV-I 14 W/m -6,7 C -6,6 C 18,0 km/h (3 Bft)
27.12.2014 16:00 -4,0 C 85 % 1003,7 hPa 0,0 l/m 7,6 km/h (2 Bft) O-SO 0,00 h 0,025 mm 0,0 UV-I 0 W/m -6,1 C -6,0 C 15,0 km/h (3 Bft)
27.12.2014 17:00 -4,3 C 88 % 1003,4 hPa 0,0 l/m 6,0 km/h (2 Bft) O 0,00 h 0,001 mm 0,0 UV-I 0 W/m -6,0 C -5,6 C 12,3 km/h (2 Bft)
27.12.2014 18:00 -4,4 C 88 % 1003,2 hPa 0,0 l/m 6,2 km/h (2 Bft) O 0,00 h 0,000 mm 0,0 UV-I 0 W/m -6,1 C -5,6 C 12,2 km/h (2 Bft)
27.12.2014 19:00 -4,4 C 87 % 1003,2 hPa 0,0 l/m 5,8 km/h (2 Bft) O 0,00 h 0,000 mm 0,0 UV-I 0 W/m -6,1 C -5,7 C 12,1 km/h (2 Bft)
27.12.2014 20:00 -4,3 C 87 % 1003,4 hPa 0,0 l/m 5,2 km/h (1 Bft) O-SO 0,00 h 0,000 mm 0,0 UV-I 0 W/m -6,1 C -5,1 C 11,5 km/h (2 Bft)
27.12.2014 21:00 -4,3 C 87 % 1003,9 hPa 0,0 l/m 6,0 km/h (2 Bft) O-NO 0,00 h 0,000 mm 0,0 UV-I 0 W/m -6,1 C -5,4 C 12,9 km/h (3 Bft)
27.12.2014 22:00 -4,2 C 88 % 1004,3 hPa 0,0 l/m 6,7 km/h (2 Bft) O-NO 0,00 h 0,000 mm 0,0 UV-I 0 W/m -6,0 C -5,9 C 13,1 km/h (3 Bft)
27.12.2014 23:00 -4,1 C 88 % 1004,8 hPa 0,0 l/m 7,7 km/h (2 Bft) O-NO 0,00 h 0,000 mm 0,0 UV-I 0 W/m -5,7 C -6,4 C 14,1 km/h (3 Bft)
28.12.2014 00:00 -4,3 C 88 % 1005,2 hPa 0,0 l/m 7,2 km/h (2 Bft) O-NO 0,00 h 0,000 mm 0,0 UV-I 0 W/m -6,0 C -6,2 C 14,1 km/h (3 Bft)
28.12.2014 01:00 -4,3 C 87 % 1005,7 hPa 0,0 l/m 6,2 km/h (2 Bft) O-NO 0,00 h 0,000 mm 0,0 UV-I 0 W/m -6,2 C -5,7 C 12,3 km/h (2 Bft)
28.12.2014 02:00 -4,4 C 85 % 1006,5 hPa 0,0 l/m 8,2 km/h (2 Bft) O-NO 0,00 h 0,000 mm 0,0 UV-I 0 W/m -6,5 C -6,9 C 15,9 km/h (3 Bft)
28.12.2014 03:00 -4,6 C 87 % 1007,5 hPa 0,0 l/m 6,5 km/h (2 Bft) O-NO 0,00 h 0,000 mm 0,0 UV-I 0 W/m -6,5 C -5,9 C 13,8 km/h (3 Bft)
28.12.2014 04:00 -4,7 C 87 % 1008,4 hPa 0,0 l/m 8,3 km/h (2 Bft) N-NO 0,00 h 0,000 mm 0,0 UV-I 0 W/m -6,5 C -7,2 C 15,1 km/h (3 Bft)
28.12.2014 05:00 -4,5 C 88 % 1009,4 hPa 0,0 l/m 5,7 km/h (2 Bft) N-NO 0,00 h 0,000 mm 0,0 UV-I 0 W/m -6,3 C -5,4 C 12,2 km/h (2 Bft)
28.12.2014 06:00 -4,2 C 87 % 1010,6 hPa 0,0 l/m 5,1 km/h (1 Bft) O-NO 0,00 h 0,000 mm 0,0 UV-I 0 W/m -6,0 C -4,7 C 11,0 km/h (2 Bft)
28.12.2014 07:00 -4,0 C 85 % 1012,1 hPa 0,0 l/m 6,4 km/h (2 Bft) N-NO 0,00 h 0,000 mm 0,0 UV-I 0 W/m -6,1 C -5,1 C 12,2 km/h (2 Bft)
28.12.2014 08:00 -4,1 C 83 % 1013,7 hPa 0,0 l/m 7,9 km/h (2 Bft) N-NO 0,00 h 0,000 mm 0,0 UV-I 15 W/m -6,5 C -6,6 C 14,8 km/h (3 Bft)
28.12.2014 09:00 -4,3 C 80 % 1015,3 hPa 0,0 l/m 12,8 km/h (3 Bft) N-NO 0,45 h 0,000 mm 0,0 UV-I 50 W/m -7,3 C -10,4 C 19,9 km/h (4 Bft)
28.12.2014 10:00 -4,6 C 73 % 1016,6 hPa 0,0 l/m 12,2 km/h (2 Bft) N-NO 1,00 h 0,025 mm 0,5 UV-I 111 W/m -8,6 C -10,1 C 19,3 km/h (3 Bft)
28.12.2014 11:00 -4,5 C 65 % 1017,8 hPa 0,0 l/m 11,9 km/h (2 Bft) N-NO 1,00 h 0,051 mm 0,6 UV-I 146 W/m -10,1 C -9,8 C 18,1 km/h (3 Bft)
28.12.2014 12:00 -4,2 C 56 % 1018,9 hPa 0,0 l/m 9,9 km/h (2 Bft) N 1,00 h 0,076 mm 0,7 UV-I 186 W/m -11,7 C -7,8 C 16,2 km/h (3 Bft)
28.12.2014 13:00 -4,3 C 62 % 1019,7 hPa 0,0 l/m 5,6 km/h (2 Bft) N 1,00 h 0,076 mm 0,6 UV-I 127 W/m -10,6 C -5,3 C 9,8 km/h (2 Bft)
28.12.2014 14:00 -4,8 C 61 % 1021,0 hPa 0,0 l/m 14,7 km/h (3 Bft) N-NO 1,00 h 0,051 mm 0,5 UV-I 71 W/m -11,2 C -12,2 C 22,5 km/h (4 Bft)
28.12.2014 15:00 -5,3 C 62 % 1022,4 hPa 0,0 l/m 11,5 km/h (2 Bft) N 0,03 h 0,051 mm 0,0 UV-I 29 W/m -11,4 C -10,3 C 17,4 km/h (3 Bft)
28.12.2014 16:00 -6,3 C 67 % 1024,3 hPa 0,0 l/m 8,1 km/h (2 Bft) N 0,00 h 0,025 mm 0,0 UV-I 6 W/m -11,5 C -8,5 C 11,8 km/h (2 Bft)
28.12.2014 17:00 -7,7 C 72 % 1025,9 hPa 0,0 l/m 11,6 km/h (2 Bft) N 0,00 h 0,025 mm 0,0 UV-I 0 W/m -11,8 C -13,4 C 16,0 km/h (3 Bft)
28.12.2014 18:00 -8,5 C 77 % 1027,3 hPa 0,0 l/m 5,0 km/h (1 Bft) N 0,00 h 0,025 mm 0,0 UV-I 0 W/m -11,7 C -10,4 C 8,7 km/h (2 Bft)
28.12.2014 19:00 -9,1 C 81 % 1028,4 hPa 0,0 l/m 0,7 km/h (0 Bft) N 0,00 h 0,000 mm 0,0 UV-I 0 W/m -11,7 C -9,1 C 1,8 km/h (1 Bft)
28.12.2014 20:00 -9,4 C 86 % 1029,5 hPa 0,0 l/m 0,4 km/h (0 Bft) N 0,00 h 0,000 mm 0,0 UV-I 0 W/m -11,3 C -9,4 C 1,0 km/h (0 Bft)
28.12.2014 21:00 -9,6 C 89 % 1030,1 hPa 0,0 l/m 0,2 km/h (0 Bft) N 0,00 h 0,001 mm 0,0 UV-I 0 W/m -11,1 C -9,6 C 0,8 km/h (0 Bft)
28.12.2014 22:00 -9,6 C 90 % 1030,4 hPa 0,0 l/m 0,1 km/h (0 Bft) N 0,00 h 0,000 mm 0,0 UV-I 0 W/m -10,9 C -9,6 C 0,5 km/h (0 Bft)
28.12.2014 23:00 -8,4 C 93 % 1030,7 hPa 0,0 l/m 2,6 km/h (1 Bft) N 0,00 h 0,000 mm 0,0 UV-I 0 W/m -9,3 C -8,7 C 4,8 km/h (1 Bft)
Min-Datum _ 28.12.14 28.12.14 27.12.14 - 23.12.14 - - - - - 28.12.14 28.12.14 23.12.14
_ Min-Zeit 22:06 12:44 18:26 - 22:17 - - - - - 12:44 10:06 09:46
Minimum _ -9,7 C 51 % 1003,1 hPa - 0,0 km/h (0 Bft) - - - - - -12,6 C -17,6 C 0,0 km/h (0 Bft)
Max-Datum _ 23.12.14 25.12.14 28.12.14 24.12.14 22.12.14 - 27.12.14 25.12.14 25.12.14 26.12.14 25.12.14 23.12.14 22.12.14
_ Max-Zeit 11:16 00:00 23:21 19:00 08:20 - 14:10 13:00 12:03 11:24 01:44 18:50 09:52
Maximum _ 7,3 C 96 % 1030,8 hPa 1,6 l/m 35,4 km/h
W-SW (5 Bft)
- 0,07 h 0,076 mm 0,8 UV-I 462 W/m 5,5 C 7,2 C 54,7 km/h
W-SW (7 Bft)
Durchschnitt _ 1,1 C 88 % 1019,7 hPa #6,6 l/m 9,5 km/h (2 Bft) W-SW #19:19 h #2,396 mm 0,6 UV-I 46 W/m -0,7 C -2,0 C 15,5 km/h (3 Bft)